sensor_id;sensor_type;location;lat;lon;timestamp;pressure;altitude;pressure_sealevel;temperature;humidity
30744;BME280;17486;46.738;7.622;2024-01-15T00:02:13;94326.25;;;1.96;69.82
30744;BME280;17486;46.738;7.622;2024-01-15T00:04:40;94316.75;;;2.00;70.13
30744;BME280;17486;46.738;7.622;2024-01-15T00:07:09;94305.84;;;1.93;70.12
30744;BME280;17486;46.738;7.622;2024-01-15T00:09:35;94306.00;;;2.15;70.30
30744;BME280;17486;46.738;7.622;2024-01-15T00:12:01;94311.03;;;2.19;70.45
30744;BME280;17486;46.738;7.622;2024-01-15T00:14:27;94326.41;;;2.20;70.61
30744;BME280;17486;46.738;7.622;2024-01-15T00:16:53;94331.47;;;2.22;70.78
30744;BME280;17486;46.738;7.622;2024-01-15T00:19:20;94325.34;;;2.26;71.03
30744;BME280;17486;46.738;7.622;2024-01-15T00:21:46;94313.31;;;2.28;71.20
30744;BME280;17486;46.738;7.622;2024-01-15T00:24:11;94309.91;;;2.27;71.19
30744;BME280;17486;46.738;7.622;2024-01-15T00:26:37;94293.31;;;2.11;71.44
30744;BME280;17486;46.738;7.622;2024-01-15T00:29:03;94323.56;;;2.28;71.35
30744;BME280;17486;46.738;7.622;2024-01-15T00:31:29;94293.31;;;2.11;70.97
30744;BME280;17486;46.738;7.622;2024-01-15T00:33:55;94312.63;;;2.23;71.32
30744;BME280;17486;46.738;7.622;2024-01-15T00:36:20;94314.28;;;2.24;71.42
30744;BME280;17486;46.738;7.622;2024-01-15T00:38:46;94315.78;;;2.31;71.47
30744;BME280;17486;46.738;7.622;2024-01-15T00:41:12;94310.53;;;2.34;71.57
30744;BME280;17486;46.738;7.622;2024-01-15T00:43:38;94297.03;;;2.29;72.13
30744;BME280;17486;46.738;7.622;2024-01-15T00:46:04;94319.69;;;2.43;71.71
30744;BME280;17486;46.738;7.622;2024-01-15T00:48:29;94284.31;;;2.26;71.90
30744;BME280;17486;46.738;7.622;2024-01-15T00:50:55;94304.09;;;2.47;71.46
30744;BME280;17486;46.738;7.622;2024-01-15T00:53:20;94283.88;;;2.38;71.37
30744;BME280;17486;46.738;7.622;2024-01-15T00:55:47;94295.59;;;2.47;71.81
30744;BME280;17486;46.738;7.622;2024-01-15T00:58:13;94299.88;;;2.46;71.66
30744;BME280;17486;46.738;7.622;2024-01-15T01:00:38;94291.34;;;2.46;71.75
30744;BME280;17486;46.738;7.622;2024-01-15T01:03:04;94283.44;;;2.52;71.47
30744;BME280;17486;46.738;7.622;2024-01-15T01:05:29;94285.94;;;2.54;71.65
30744;BME280;17486;46.738;7.622;2024-01-15T01:07:54;94272.22;;;2.55;71.47
30744;BME280;17486;46.738;7.622;2024-01-15T01:10:20;94286.69;;;2.57;71.53
30744;BME280;17486;46.738;7.622;2024-01-15T01:12:45;94282.50;;;2.55;71.58
30744;BME280;17486;46.738;7.622;2024-01-15T01:15:10;94285.75;;;2.60;71.22
30744;BME280;17486;46.738;7.622;2024-01-15T01:17:36;94289.13;;;2.60;71.23
30744;BME280;17486;46.738;7.622;2024-01-15T01:20:01;94282.28;;;2.61;71.49
30744;BME280;17486;46.738;7.622;2024-01-15T01:22:29;94275.38;;;2.63;71.27
30744;BME280;17486;46.738;7.622;2024-01-15T01:24:55;94276.09;;;2.67;71.26
30744;BME280;17486;46.738;7.622;2024-01-15T01:27:20;94273.59;;;2.65;71.10
30744;BME280;17486;46.738;7.622;2024-01-15T01:29:45;94268.53;;;2.63;71.02
30744;BME280;17486;46.738;7.622;2024-01-15T01:32:11;94270.16;;;2.64;71.22
30744;BME280;17486;46.738;7.622;2024-01-15T01:34:40;94260.84;;;2.62;71.23
30744;BME280;17486;46.738;7.622;2024-01-15T01:37:11;94220.53;;;2.40;71.42
30744;BME280;17486;46.738;7.622;2024-01-15T01:39:43;94261.03;;;2.57;71.24
30744;BME280;17486;46.738;7.622;2024-01-15T01:42:09;94236.72;;;2.42;71.14
30744;BME280;17486;46.738;7.622;2024-01-15T01:44:35;94274.41;;;2.65;71.26
30744;BME280;17486;46.738;7.622;2024-01-15T01:47:01;94261.53;;;2.67;71.11
30744;BME280;17486;46.738;7.622;2024-01-15T01:49:29;94262.31;;;2.69;71.04
30744;BME280;17486;46.738;7.622;2024-01-15T01:51:59;94255.81;;;2.59;70.86
30744;BME280;17486;46.738;7.622;2024-01-15T01:54:27;94272.53;;;2.71;70.83
30744;BME280;17486;46.738;7.622;2024-01-15T01:56:54;94275.16;;;2.69;71.03
30744;BME280;17486;46.738;7.622;2024-01-15T01:59:20;94241.63;;;2.48;71.17
30744;BME280;17486;46.738;7.622;2024-01-15T02:01:46;94272.72;;;2.66;71.15
30744;BME280;17486;46.738;7.622;2024-01-15T02:04:13;94273.59;;;2.65;71.30
30744;BME280;17486;46.738;7.622;2024-01-15T02:06:41;94276.94;;;2.67;71.24
30744;BME280;17486;46.738;7.622;2024-01-15T02:09:07;94258.72;;;2.49;71.40
30744;BME280;17486;46.738;7.622;2024-01-15T02:11:33;94279.50;;;2.67;71.32
30744;BME280;17486;46.738;7.622;2024-01-15T02:13:58;94276.94;;;2.67;70.99
30744;BME280;17486;46.738;7.622;2024-01-15T02:16:23;94265.16;;;2.61;71.34
30744;BME280;17486;46.738;7.622;2024-01-15T02:18:49;94264.28;;;2.62;71.38
30744;BME280;17486;46.738;7.622;2024-01-15T02:21:15;94272.66;;;2.68;71.22
30744;BME280;17486;46.738;7.622;2024-01-15T02:23:41;94267.50;;;2.68;71.44
30744;BME280;17486;46.738;7.622;2024-01-15T02:26:07;94254.75;;;2.66;71.48
30744;BME280;17486;46.738;7.622;2024-01-15T02:28:33;94248.19;;;2.57;71.31
30744;BME280;17486;46.738;7.622;2024-01-15T02:30:59;94254.00;;;2.62;71.42
30744;BME280;17486;46.738;7.622;2024-01-15T02:33:24;94252.31;;;2.61;71.19
30744;BME280;17486;46.738;7.622;2024-01-15T02:35:50;94247.25;;;2.60;71.38
30744;BME280;17486;46.738;7.622;2024-01-15T02:38:16;94232.06;;;2.54;71.65
30744;BME280;17486;46.738;7.622;2024-01-15T02:40:43;94243.19;;;2.53;71.42
30744;BME280;17486;46.738;7.622;2024-01-15T02:43:09;94224.66;;;2.44;71.44
30744;BME280;17486;46.738;7.622;2024-01-15T02:45:34;94235.75;;;2.45;71.67
30744;BME280;17486;46.738;7.622;2024-01-15T02:47:59;94227.34;;;2.41;71.72
30744;BME280;17486;46.738;7.622;2024-01-15T02:50:25;94209.59;;;2.35;71.93
30744;BME280;17486;46.738;7.622;2024-01-15T02:52:50;94227.81;;;2.53;71.78
30744;BME280;17486;46.738;7.622;2024-01-15T02:55:16;94219.28;;;2.52;72.08
30744;BME280;17486;46.738;7.622;2024-01-15T02:57:41;94221.03;;;2.52;71.81
30744;BME280;17486;46.738;7.622;2024-01-15T03:00:07;94223.53;;;2.53;72.02
30744;BME280;17486;46.738;7.622;2024-01-15T03:02:35;94223.47;;;2.55;71.88
30744;BME280;17486;46.738;7.622;2024-01-15T03:05:01;94226.16;;;2.52;71.87
30744;BME280;17486;46.738;7.622;2024-01-15T03:07:28;94214.34;;;2.46;71.93
30744;BME280;17486;46.738;7.622;2024-01-15T03:09:53;94202.59;;;2.40;72.04
30744;BME280;17486;46.738;7.622;2024-01-15T03:12:18;94232.84;;;2.56;72.03
30744;BME280;17486;46.738;7.622;2024-01-15T03:14:44;94246.44;;;2.58;72.22
30744;BME280;17486;46.738;7.622;2024-01-15T03:17:09;94246.38;;;2.61;72.02
30744;BME280;17486;46.738;7.622;2024-01-15T03:19:36;94236.97;;;2.60;72.02
30744;BME280;17486;46.738;7.622;2024-01-15T03:22:01;94212.53;;;2.49;72.16
30744;BME280;17486;46.738;7.622;2024-01-15T03:24:29;94224.19;;;2.58;71.72
30744;BME280;17486;46.738;7.622;2024-01-15T03:26:54;94226.59;;;2.63;71.73
30744;BME280;17486;46.738;7.622;2024-01-15T03:29:19;94228.34;;;2.62;71.94
30744;BME280;17486;46.738;7.622;2024-01-15T03:31:45;94225.72;;;2.64;71.96
30744;BME280;17486;46.738;7.622;2024-01-15T03:34:10;94215.44;;;2.64;71.83
30744;BME280;17486;46.738;7.622;2024-01-15T03:36:35;94211.25;;;2.61;71.97
30744;BME280;17486;46.738;7.622;2024-01-15T03:39:01;94211.25;;;2.61;71.89
30744;BME280;17486;46.738;7.622;2024-01-15T03:41:26;94202.09;;;2.54;72.00
30744;BME280;17486;46.738;7.622;2024-01-15T03:43:51;94206.44;;;2.52;72.31
30744;BME280;17486;46.738;7.622;2024-01-15T03:46:17;94206.38;;;2.54;72.33
30744;BME280;17486;46.738;7.622;2024-01-15T03:48:42;94196.31;;;2.49;72.55
30744;BME280;17486;46.738;7.622;2024-01-15T03:51:08;94167.19;;;2.25;72.51
30744;BME280;17486;46.738;7.622;2024-01-15T03:53:33;94192.13;;;2.45;72.32
30744;BME280;17486;46.738;7.622;2024-01-15T03:55:58;94186.06;;;2.47;72.56
30744;BME280;17486;46.738;7.622;2024-01-15T03:58:24;94186.75;;;2.53;72.46
30744;BME280;17486;46.738;7.622;2024-01-15T04:00:49;94193.56;;;2.54;72.29
30744;BME280;17486;46.738;7.622;2024-01-15T04:03:15;94189.22;;;2.56;72.49
30744;BME280;17486;46.738;7.622;2024-01-15T04:05:40;94191.59;;;2.60;72.14
30744;BME280;17486;46.738;7.622;2024-01-15T04:08:05;94181.41;;;2.59;71.87
30744;BME280;17486;46.738;7.622;2024-01-15T04:10:31;94183.06;;;2.60;72.08
30744;BME280;17486;46.738;7.622;2024-01-15T04:12:56;94195.03;;;2.61;71.55
30744;BME280;17486;46.738;7.622;2024-01-15T04:15:24;94190.84;;;2.58;72.19
30744;BME280;17486;46.738;7.622;2024-01-15T04:17:50;94192.53;;;2.58;72.24
30744;BME280;17486;46.738;7.622;2024-01-15T04:20:15;94192.53;;;2.58;72.05
30744;BME280;17486;46.738;7.622;2024-01-15T04:22:40;94170.66;;;2.47;71.79
30744;BME280;17486;46.738;7.622;2024-01-15T04:25:06;94183.13;;;2.58;71.80
30744;BME280;17486;46.738;7.622;2024-01-15T04:27:31;94192.50;;;2.59;72.15
30744;BME280;17486;46.738;7.622;2024-01-15T04:29:57;94185.66;;;2.60;72.04
30744;BME280;17486;46.738;7.622;2024-01-15T04:32:22;94178.84;;;2.59;72.20
30744;BME280;17486;46.738;7.622;2024-01-15T04:34:47;94172.97;;;2.55;72.05
30744;BME280;17486;46.738;7.622;2024-01-15T04:37:13;94183.16;;;2.57;72.00
30744;BME280;17486;46.738;7.622;2024-01-15T04:39:39;94159.03;;;2.39;72.00
30744;BME280;17486;46.738;7.622;2024-01-15T04:42:04;94188.41;;;2.54;72.17
30744;BME280;17486;46.738;7.622;2024-01-15T04:44:30;94153.97;;;2.36;72.17
30744;BME280;17486;46.738;7.622;2024-01-15T04:46:55;94182.47;;;2.53;71.92
30744;BME280;17486;46.738;7.622;2024-01-15T04:49:21;94178.16;;;2.54;72.06
30744;BME280;17486;46.738;7.622;2024-01-15T04:51:46;94158.91;;;2.42;71.78
30744;BME280;17486;46.738;7.622;2024-01-15T04:54:11;94166.38;;;2.48;72.00
30744;BME280;17486;46.738;7.622;2024-01-15T04:56:37;94152.47;;;2.30;71.97
30744;BME280;17486;46.738;7.622;2024-01-15T04:59:02;94160.53;;;2.44;72.08
30744;BME280;17486;46.738;7.622;2024-01-15T05:01:31;94151.38;;;2.37;71.96
30744;BME280;17486;46.738;7.622;2024-01-15T05:03:57;94164.03;;;2.42;72.15
30744;BME280;17486;46.738;7.622;2024-01-15T05:06:23;94170.09;;;2.39;72.09
30744;BME280;17486;46.738;7.622;2024-01-15T05:08:48;94167.47;;;2.41;72.09
30744;BME280;17486;46.738;7.622;2024-01-15T05:11:13;94164.09;;;2.40;71.83
30744;BME280;17486;46.738;7.622;2024-01-15T05:13:39;94159.91;;;2.38;71.82
30744;BME280;17486;46.738;7.622;2024-01-15T05:16:04;94159.09;;;2.36;71.89
30744;BME280;17486;46.738;7.622;2024-01-15T05:18:29;94174.50;;;2.36;71.94
30744;BME280;17486;46.738;7.622;2024-01-15T05:20:55;94169.34;;;2.37;71.72
30744;BME280;17486;46.738;7.622;2024-01-15T05:23:20;94164.31;;;2.34;71.70
30744;BME280;17486;46.738;7.622;2024-01-15T05:25:45;94175.34;;;2.36;71.83
30744;BME280;17486;46.738;7.622;2024-01-15T05:28:11;94183.94;;;2.35;72.02
30744;BME280;17486;46.738;7.622;2024-01-15T05:30:36;94156.44;;;2.15;71.54
30744;BME280;17486;46.738;7.622;2024-01-15T05:33:02;94173.94;;;2.27;71.83
30744;BME280;17486;46.738;7.622;2024-01-15T05:35:28;94157.31;;;2.14;71.59
30744;BME280;17486;46.738;7.622;2024-01-15T05:37:53;94188.41;;;2.30;71.64
30744;BME280;17486;46.738;7.622;2024-01-15T05:40:19;94126.25;;;1.96;71.50
30744;BME280;17486;46.738;7.622;2024-01-15T05:42:44;94176.50;;;2.27;71.43
30744;BME280;17486;46.738;7.622;2024-01-15T05:45:09;94154.00;;;2.10;71.59
30744;BME280;17486;46.738;7.622;2024-01-15T05:47:35;94164.81;;;2.19;71.33
30744;BME280;17486;46.738;7.622;2024-01-15T05:50:01;94179.34;;;2.20;71.29
30744;BME280;17486;46.738;7.622;2024-01-15T05:52:26;94173.38;;;2.19;71.77
30744;BME280;17486;46.738;7.622;2024-01-15T05:54:51;94160.81;;;2.11;71.45
30744;BME280;17486;46.738;7.622;2024-01-15T05:57:17;94182.75;;;2.20;71.71
30744;BME280;17486;46.738;7.622;2024-01-15T05:59:44;94182.00;;;2.17;71.42
30744;BME280;17486;46.738;7.622;2024-01-15T06:02:09;94177.78;;;2.15;71.55
30744;BME280;17486;46.738;7.622;2024-01-15T06:04:35;94171.97;;;2.10;71.40
30744;BME280;17486;46.738;7.622;2024-01-15T06:07:01;94167.72;;;2.09;71.13
30744;BME280;17486;46.738;7.622;2024-01-15T06:09:26;94164.38;;;2.07;71.29
30744;BME280;17486;46.738;7.622;2024-01-15T06:11:52;94168.72;;;2.05;71.26
30744;BME280;17486;46.738;7.622;2024-01-15T06:14:18;94171.38;;;2.02;71.30
30744;BME280;17486;46.738;7.622;2024-01-15T06:16:43;94176.59;;;1.99;70.74
30744;BME280;17486;46.738;7.622;2024-01-15T06:19:08;94174.16;;;1.96;71.06
30744;BME280;17486;46.738;7.622;2024-01-15T06:21:34;94166.78;;;1.87;71.01
30744;BME280;17486;46.738;7.622;2024-01-15T06:23:59;94170.03;;;1.92;71.15
30744;BME280;17486;46.738;7.622;2024-01-15T06:26:25;94178.47;;;1.94;71.30
30744;BME280;17486;46.738;7.622;2024-01-15T06:28:50;94172.72;;;1.87;71.15
30744;BME280;17486;46.738;7.622;2024-01-15T06:31:15;94181.97;;;1.93;71.15
30744;BME280;17486;46.738;7.622;2024-01-15T06:33:41;94181.84;;;1.96;71.50
30744;BME280;17486;46.738;7.622;2024-01-15T06:36:07;94178.41;;;1.97;71.58
30744;BME280;17486;46.738;7.622;2024-01-15T06:38:32;94178.28;;;2.00;71.11
30744;BME280;17486;46.738;7.622;2024-01-15T06:40:57;94176.59;;;1.99;71.49
30744;BME280;17486;46.738;7.622;2024-01-15T06:43:23;94184.28;;;1.99;71.09
30744;BME280;17486;46.738;7.622;2024-01-15T06:45:48;94170.72;;;1.97;71.45
30744;BME280;17486;46.738;7.622;2024-01-15T06:48:15;94133.06;;;1.72;70.95
30744;BME280;17486;46.738;7.622;2024-01-15T06:50:42;94166.53;;;1.94;71.35
30744;BME280;17486;46.738;7.622;2024-01-15T06:53:07;94171.47;;;1.99;71.45
30744;BME280;17486;46.738;7.622;2024-01-15T06:55:33;94166.53;;;1.94;71.01
30744;BME280;17486;46.738;7.622;2024-01-15T06:57:58;94173.34;;;1.94;71.11
30744;BME280;17486;46.738;7.622;2024-01-15T07:00:23;94157.41;;;1.86;71.08
30744;BME280;17486;46.738;7.622;2024-01-15T07:02:49;94158.16;;;1.89;71.09
30744;BME280;17486;46.738;7.622;2024-01-15T07:05:14;94171.69;;;1.93;70.85
30744;BME280;17486;46.738;7.622;2024-01-15T07:07:40;94129.81;;;1.67;71.09
30744;BME280;17486;46.738;7.622;2024-01-15T07:10:06;94184.34;;;1.97;70.62
30744;BME280;17486;46.738;7.622;2024-01-15T07:12:32;94182.66;;;1.96;70.76
30744;BME280;17486;46.738;7.622;2024-01-15T07:14:57;94171.31;;;1.78;70.80
30744;BME280;17486;46.738;7.622;2024-01-15T07:17:23;94180.28;;;1.92;70.60
30744;BME280;17486;46.738;7.622;2024-01-15T07:19:49;94162.59;;;1.84;70.54
30744;BME280;17486;46.738;7.622;2024-01-15T07:22:14;94181.16;;;1.91;70.83
30744;BME280;17486;46.738;7.622;2024-01-15T07:24:42;94170.16;;;1.87;70.74
30744;BME280;17486;46.738;7.622;2024-01-15T07:27:08;94181.22;;;1.89;70.77
30744;BME280;17486;46.738;7.622;2024-01-15T07:29:34;94182.03;;;1.90;70.69
30744;BME280;17486;46.738;7.622;2024-01-15T07:32:01;94180.38;;;1.89;70.67
30744;BME280;17486;46.738;7.622;2024-01-15T07:34:26;94181.22;;;1.89;70.90
30744;BME280;17486;46.738;7.622;2024-01-15T07:36:52;94166.97;;;1.80;70.73
30744;BME280;17486;46.738;7.622;2024-01-15T07:39:17;94175.34;;;1.86;70.95
30744;BME280;17486;46.738;7.622;2024-01-15T07:41:42;94181.22;;;1.89;70.66
30744;BME280;17486;46.738;7.622;2024-01-15T07:44:08;94183.78;;;1.89;70.89
30744;BME280;17486;46.738;7.622;2024-01-15T07:46:33;94177.78;;;1.90;71.01
30744;BME280;17486;46.738;7.622;2024-01-15T07:48:58;94187.97;;;1.92;70.85
30744;BME280;17486;46.738;7.622;2024-01-15T07:51:24;94186.22;;;1.92;70.92
30744;BME280;17486;46.738;7.622;2024-01-15T07:53:52;94170.41;;;1.79;70.82
30744;BME280;17486;46.738;7.622;2024-01-15T07:56:18;94182.16;;;1.87;71.33
30744;BME280;17486;46.738;7.622;2024-01-15T07:58:43;94195.59;;;1.93;71.17
30744;BME280;17486;46.738;7.622;2024-01-15T08:01:09;94194.78;;;1.93;71.33
30744;BME280;17486;46.738;7.622;2024-01-15T08:03:34;94192.91;;;1.98;71.18
30744;BME280;17486;46.738;7.622;2024-01-15T08:06:00;94192.00;;;1.99;71.51
30744;BME280;17486;46.738;7.622;2024-01-15T08:08:25;94196.16;;;2.03;71.79
30744;BME280;17486;46.738;7.622;2024-01-15T08:10:54;94188.47;;;2.03;71.61
30744;BME280;17486;46.738;7.622;2024-01-15T08:13:19;94175.84;;;1.97;71.63
30744;BME280;17486;46.738;7.622;2024-01-15T08:15:45;94186.47;;;2.11;71.57
30744;BME280;17486;46.738;7.622;2024-01-15T08:18:11;94188.09;;;2.14;71.75
30744;BME280;17486;46.738;7.622;2024-01-15T08:20:36;94186.16;;;2.21;71.78
30744;BME280;17486;46.738;7.622;2024-01-15T08:23:02;94168.34;;;2.16;71.61
30744;BME280;17486;46.738;7.622;2024-01-15T08:25:28;94185.94;;;2.27;71.71
30744;BME280;17486;46.738;7.622;2024-01-15T08:27:53;94191.75;;;2.32;71.90
30744;BME280;17486;46.738;7.622;2024-01-15T08:30:19;94195.00;;;2.37;71.71
30744;BME280;17486;46.738;7.622;2024-01-15T08:32:45;94190.53;;;2.42;71.75
30744;BME280;17486;46.738;7.622;2024-01-15T08:35:11;94175.50;;;2.31;71.42
30744;BME280;17486;46.738;7.622;2024-01-15T08:37:38;94189.53;;;2.46;71.76
30744;BME280;17486;46.738;7.622;2024-01-15T08:40:04;94202.06;;;2.56;71.52
30744;BME280;17486;46.738;7.622;2024-01-15T08:42:29;94188.31;;;2.57;71.53
30744;BME280;17486;46.738;7.622;2024-01-15T08:44:55;94192.41;;;2.62;71.57
30744;BME280;17486;46.738;7.622;2024-01-15T08:47:20;94187.19;;;2.64;71.31
30744;BME280;17486;46.738;7.622;2024-01-15T08:49:46;94162.81;;;2.52;71.30
30744;BME280;17486;46.738;7.622;2024-01-15T08:52:12;94182.63;;;2.72;71.35
30744;BME280;17486;46.738;7.622;2024-01-15T08:54:37;94174.84;;;2.74;71.59
30744;BME280;17486;46.738;7.622;2024-01-15T08:57:03;94166.34;;;2.73;71.67
30744;BME280;17486;46.738;7.622;2024-01-15T08:59:28;94159.28;;;2.78;71.79
30744;BME280;17486;46.738;7.622;2024-01-15T09:01:54;94156.56;;;2.83;71.77
30744;BME280;17486;46.738;7.622;2024-01-15T09:04:21;94153.75;;;2.89;71.73
30744;BME280;17486;46.738;7.622;2024-01-15T09:06:47;94155.22;;;2.96;71.83
30744;BME280;17486;46.738;7.622;2024-01-15T09:09:13;94141.88;;;2.87;71.75
30744;BME280;17486;46.738;7.622;2024-01-15T09:11:40;94171.09;;;3.06;71.74
30744;BME280;17486;46.738;7.622;2024-01-15T09:14:06;94153.78;;;3.11;71.56
30744;BME280;17486;46.738;7.622;2024-01-15T09:16:33;94148.28;;;3.21;71.41
30744;BME280;17486;46.738;7.622;2024-01-15T09:18:58;94164.25;;;3.29;71.42
30744;BME280;17486;46.738;7.622;2024-01-15T09:21:23;94154.69;;;3.32;71.23
30744;BME280;17486;46.738;7.622;2024-01-15T09:23:50;94157.84;;;3.39;71.15
30744;BME280;17486;46.738;7.622;2024-01-15T09:26:15;94159.41;;;3.43;70.94
30744;BME280;17486;46.738;7.622;2024-01-15T09:28:41;94148.13;;;3.47;71.19
30744;BME280;17486;46.738;7.622;2024-01-15T09:31:07;94148.03;;;3.49;70.98
30744;BME280;17486;46.738;7.622;2024-01-15T09:33:32;94147.81;;;3.55;70.82
30744;BME280;17486;46.738;7.622;2024-01-15T09:36:01;94162.16;;;3.61;70.71
30744;BME280;17486;46.738;7.622;2024-01-15T09:38:27;94167.16;;;3.64;70.59
30744;BME280;17486;46.738;7.622;2024-01-15T09:40:52;94165.38;;;3.66;70.43
30744;BME280;17486;46.738;7.622;2024-01-15T09:43:18;94160.38;;;3.63;70.10
30744;BME280;17486;46.738;7.622;2024-01-15T09:45:44;94126.66;;;3.48;70.59
30744;BME280;17486;46.738;7.622;2024-01-15T09:48:10;94162.44;;;3.75;70.21
30744;BME280;17486;46.738;7.622;2024-01-15T09:50:35;94164.94;;;3.77;69.97
30744;BME280;17486;46.738;7.622;2024-01-15T09:53:02;94166.53;;;3.79;70.08
30744;BME280;17486;46.738;7.622;2024-01-15T09:55:29;94163.06;;;3.80;70.15
30744;BME280;17486;46.738;7.622;2024-01-15T09:57:55;94166.28;;;3.86;69.83
30744;BME280;17486;46.738;7.622;2024-01-15T10:00:22;94139.34;;;3.74;69.96
30744;BME280;17486;46.738;7.622;2024-01-15T10:02:48;94160.06;;;3.91;70.10
30744;BME280;17486;46.738;7.622;2024-01-15T10:05:14;94171.06;;;3.95;69.87
30744;BME280;17486;46.738;7.622;2024-01-15T10:07:40;94152.22;;;3.94;69.43
30744;BME280;17486;46.738;7.622;2024-01-15T10:10:06;94157.16;;;3.99;69.71
30744;BME280;17486;46.738;7.622;2024-01-15T10:12:32;94160.53;;;4.01;69.17
30744;BME280;17486;46.738;7.622;2024-01-15T10:14:58;94152.81;;;4.01;70.08
30744;BME280;17486;46.738;7.622;2024-01-15T10:17:24;94148.94;;;4.11;69.88
30744;BME280;17486;46.738;7.622;2024-01-15T10:19:52;94152.22;;;4.15;69.64
30744;BME280;17486;46.738;7.622;2024-01-15T10:22:17;94134.81;;;4.01;69.33
30744;BME280;17486;46.738;7.622;2024-01-15T10:24:45;94124.50;;;4.01;68.88
30744;BME280;17486;46.738;7.622;2024-01-15T10:27:12;94165.72;;;4.20;68.69
30744;BME280;17486;46.738;7.622;2024-01-15T10:29:37;94156.97;;;4.24;69.06
30744;BME280;17486;46.738;7.622;2024-01-15T10:32:06;94129.38;;;4.07;68.44
30744;BME280;17486;46.738;7.622;2024-01-15T10:34:33;94145.84;;;4.24;68.65
30744;BME280;17486;46.738;7.622;2024-01-15T10:36:58;94147.38;;;4.28;68.18
30744;BME280;17486;46.738;7.622;2024-01-15T10:39:24;94147.38;;;4.28;68.40
30744;BME280;17486;46.738;7.622;2024-01-15T10:41:50;94136.13;;;4.30;68.37
30744;BME280;17486;46.738;7.622;2024-01-15T10:44:17;94140.44;;;4.30;68.00
30744;BME280;17486;46.738;7.622;2024-01-15T10:46:43;94126.69;;;4.31;67.42
30744;BME280;17486;46.738;7.622;2024-01-15T10:49:08;94106.53;;;4.20;67.58
30744;BME280;17486;46.738;7.622;2024-01-15T10:51:36;94117.22;;;4.31;68.00
30744;BME280;17486;46.738;7.622;2024-01-15T10:54:01;94105.50;;;4.24;67.55
30744;BME280;17486;46.738;7.622;2024-01-15T10:56:27;94098.75;;;4.22;67.51
30744;BME280;17486;46.738;7.622;2024-01-15T10:58:55;94130.78;;;4.35;67.27
30744;BME280;17486;46.738;7.622;2024-01-15T11:01:21;94141.84;;;4.37;66.77
30744;BME280;17486;46.738;7.622;2024-01-15T11:03:47;94141.00;;;4.37;66.59
30744;BME280;17486;46.738;7.622;2024-01-15T11:06:16;94141.84;;;4.37;66.78
30744;BME280;17486;46.738;7.622;2024-01-15T11:08:44;94142.63;;;4.39;67.04
30744;BME280;17486;46.738;7.622;2024-01-15T11:11:10;94135.97;;;4.34;66.50
30744;BME280;17486;46.738;7.622;2024-01-15T11:16:09;94141.97;;;4.34;66.49
30744;BME280;17486;46.738;7.622;2024-01-15T11:21:25;94146.22;;;4.35;67.07
30744;BME280;17486;46.738;7.622;2024-01-15T11:24:01;94133.34;;;4.35;66.96
30744;BME280;17486;46.738;7.622;2024-01-15T11:26:36;94141.00;;;4.37;66.89
30744;BME280;17486;46.738;7.622;2024-01-15T11:29:49;94129.84;;;4.36;67.19
30744;BME280;17486;46.738;7.622;2024-01-15T11:34:15;94134.97;;;4.38;66.96
30744;BME280;17486;46.738;7.622;2024-01-15T11:41:58;94125.41;;;4.40;66.82
30744;BME280;17486;46.738;7.622;2024-01-15T11:44:25;94117.63;;;4.41;66.32
30744;BME280;17486;46.738;7.622;2024-01-15T11:47:00;94125.22;;;4.44;66.09
30744;BME280;17486;46.738;7.622;2024-01-15T11:50:02;94126.06;;;4.45;66.28
30744;BME280;17486;46.738;7.622;2024-01-15T11:52:38;94121.69;;;4.47;66.33
30744;BME280;17486;46.738;7.622;2024-01-15T11:55:35;94121.69;;;4.47;66.55
30744;BME280;17486;46.738;7.622;2024-01-15T11:58:02;94132.66;;;4.51;66.04
30744;BME280;17486;46.738;7.622;2024-01-15T12:00:30;94129.34;;;4.48;66.27
30744;BME280;17486;46.738;7.622;2024-01-15T12:02:58;94134.34;;;4.52;66.39
30744;BME280;17486;46.738;7.622;2024-01-15T12:05:23;94130.09;;;4.51;66.43
30744;BME280;17486;46.738;7.622;2024-01-15T12:07:50;94139.50;;;4.52;66.24
30744;BME280;17486;46.738;7.622;2024-01-15T12:10:20;94126.63;;;4.52;66.34
30744;BME280;17486;46.738;7.622;2024-01-15T12:13:05;94133.38;;;4.54;66.10
30744;BME280;17486;46.738;7.622;2024-01-15T12:15:33;94123.06;;;4.54;65.58
30744;BME280;17486;46.738;7.622;2024-01-15T12:18:00;94129.91;;;4.55;65.91
30744;BME280;17486;46.738;7.622;2024-01-15T12:20:28;94113.97;;;4.47;66.01
30744;BME280;17486;46.738;7.622;2024-01-15T12:22:54;94098.97;;;4.36;65.76
30744;BME280;17486;46.738;7.622;2024-01-15T12:25:23;94117.84;;;4.56;65.79
30744;BME280;17486;46.738;7.622;2024-01-15T12:27:49;94111.88;;;4.55;66.00
30744;BME280;17486;46.738;7.622;2024-01-15T12:30:14;94116.25;;;4.53;65.38
30744;BME280;17486;46.738;7.622;2024-01-15T12:32:43;94111.16;;;4.52;65.23
30744;BME280;17486;46.738;7.622;2024-01-15T12:35:10;94120.56;;;4.53;65.25
30744;BME280;17486;46.738;7.622;2024-01-15T12:37:44;94108.53;;;4.53;65.69
30744;BME280;17486;46.738;7.622;2024-01-15T12:40:13;94112.38;;;4.63;65.60
30744;BME280;17486;46.738;7.622;2024-01-15T12:42:40;94080.09;;;4.56;64.95
30744;BME280;17486;46.738;7.622;2024-01-15T12:45:06;94091.28;;;4.74;65.53
30744;BME280;17486;46.738;7.622;2024-01-15T12:47:32;94082.38;;;4.81;65.50
30744;BME280;17486;46.738;7.622;2024-01-15T12:49:58;94076.50;;;4.97;64.39
30744;BME280;17486;46.738;7.622;2024-01-15T12:52:27;94080.75;;;4.98;64.11
30744;BME280;17486;46.738;7.622;2024-01-15T12:54:52;94074.03;;;5.13;63.97
30744;BME280;17486;46.738;7.622;2024-01-15T12:57:18;94051.91;;;5.26;64.57
30744;BME280;17486;46.738;7.622;2024-01-15T12:59:44;94035.41;;;5.65;65.11
30744;BME280;17486;46.738;7.622;2024-01-15T13:02:11;94065.44;;;6.35;64.72
30744;BME280;17486;46.738;7.622;2024-01-15T13:04:37;94074.84;;;6.86;63.09
30744;BME280;17486;46.738;7.622;2024-01-15T13:07:02;94083.69;;;7.13;61.88
30744;BME280;17486;46.738;7.622;2024-01-15T13:09:28;94083.09;;;7.24;60.56
30744;BME280;17486;46.738;7.622;2024-01-15T13:11:55;94088.94;;;7.28;59.75
30744;BME280;17486;46.738;7.622;2024-01-15T13:14:20;94091.69;;;7.25;59.28
30744;BME280;17486;46.738;7.622;2024-01-15T13:16:46;94108.72;;;7.29;59.33
30744;BME280;17486;46.738;7.622;2024-01-15T13:19:12;94108.88;;;7.26;58.93